createdAt,value
2023-03-07T00:00:57.844Z,16.73
2023-03-07T00:03:24.282Z,15.57
2023-03-07T00:05:59.731Z,17.53
2023-03-07T00:08:26.188Z,15.70
2023-03-07T00:10:52.584Z,17.63
2023-03-07T00:13:19.054Z,16.07
2023-03-07T00:15:45.596Z,16.00
2023-03-07T00:18:12.077Z,13.97
2023-03-07T00:20:38.589Z,14.43
2023-03-07T00:23:05.001Z,13.57
2023-03-07T00:25:31.448Z,13.73
2023-03-07T00:27:57.878Z,13.30
2023-03-07T00:30:24.326Z,13.47
2023-03-07T00:32:50.762Z,13.97
2023-03-07T00:35:17.234Z,14.13
2023-03-07T00:37:43.690Z,13.30
2023-03-07T00:40:10.556Z,13.43
2023-03-07T00:42:37.047Z,15.27
2023-03-07T00:45:03.904Z,16.30
2023-03-07T00:47:30.382Z,17.57
2023-03-07T00:49:56.899Z,14.43
2023-03-07T00:52:23.331Z,13.30
2023-03-07T00:54:49.829Z,15.27
2023-03-07T00:57:16.351Z,16.60
2023-03-07T00:59:42.902Z,14.23
2023-03-07T01:02:09.398Z,14.80
2023-03-07T01:04:35.868Z,15.40
2023-03-07T01:07:02.478Z,18.33
2023-03-07T01:09:28.949Z,16.13
2023-03-07T01:11:55.538Z,14.57
2023-03-07T01:14:22.332Z,14.40
2023-03-07T01:16:48.801Z,15.63
2023-03-07T01:19:15.374Z,14.97
2023-03-07T01:21:43.147Z,14.90
2023-03-07T01:24:12.057Z,15.63
2023-03-07T01:26:38.516Z,15.90
2023-03-07T01:29:06.205Z,15.27
2023-03-07T01:31:34.970Z,15.90
2023-03-07T01:34:02.341Z,15.50
2023-03-07T01:36:33.160Z,15.93
2023-03-07T01:39:07.808Z,15.83
2023-03-07T01:41:37.481Z,15.47
2023-03-07T01:44:12.217Z,14.60
2023-03-07T01:46:44.849Z,14.83
2023-03-07T01:49:12.180Z,16.47
2023-03-07T01:51:40.522Z,14.30
2023-03-07T01:54:09.207Z,16.30
2023-03-07T01:56:37.009Z,15.20
2023-03-07T01:59:04.084Z,17.23
2023-03-07T02:01:30.708Z,15.27
2023-03-07T02:04:10.790Z,15.00
2023-03-07T02:06:38.130Z,20.10
2023-03-07T02:09:07.316Z,15.23
2023-03-07T02:11:34.803Z,23.40
2023-03-07T02:14:01.383Z,17.13
2023-03-07T02:16:27.899Z,14.37
2023-03-07T02:18:54.406Z,22.80
2023-03-07T02:21:39.277Z,17.30
2023-03-07T02:24:08.644Z,22.50
2023-03-07T02:26:41.513Z,16.57
2023-03-07T02:29:08.025Z,15.13
2023-03-07T02:31:34.566Z,16.93
2023-03-07T02:34:01.814Z,25.43
2023-03-07T02:36:31.262Z,18.03
2023-03-07T02:39:06.911Z,17.73
2023-03-07T02:41:34.536Z,22.00
2023-03-07T02:44:07.375Z,23.80
2023-03-07T02:46:34.000Z,31.33
2023-03-07T02:49:00.530Z,25.23
2023-03-07T02:51:27.230Z,16.47
2023-03-07T02:53:54.124Z,22.77
2023-03-07T02:56:20.604Z,20.10
2023-03-07T02:58:47.084Z,32.90
2023-03-07T03:01:13.649Z,20.53
2023-03-07T03:03:40.107Z,25.73
2023-03-07T03:06:06.582Z,33.00
2023-03-07T03:08:33.036Z,44.47
2023-03-07T03:10:59.726Z,30.47
2023-03-07T03:13:27.586Z,46.53
2023-03-07T03:15:57.865Z,41.40
2023-03-07T03:18:24.875Z,44.70
2023-03-07T03:20:51.323Z,36.83
2023-03-07T03:23:17.848Z,31.57
2023-03-07T03:25:44.421Z,39.10
2023-03-07T03:28:13.403Z,37.67
2023-03-07T03:30:40.278Z,35.17
2023-03-07T03:33:06.784Z,47.10
2023-03-07T03:35:34.557Z,29.00
2023-03-07T03:38:01.530Z,34.20
2023-03-07T03:40:28.126Z,31.67
2023-03-07T03:42:54.892Z,38.50
2023-03-07T03:45:24.190Z,39.57
2023-03-07T03:47:51.095Z,34.87
2023-03-07T03:50:17.831Z,37.40
2023-03-07T03:52:45.215Z,42.23
2023-03-07T03:55:12.564Z,30.67
2023-03-07T03:57:39.223Z,38.87
2023-03-07T04:00:08.590Z,33.87
2023-03-07T04:02:38.899Z,39.30
2023-03-07T04:05:07.506Z,50.97
2023-03-07T04:07:33.989Z,29.63
2023-03-07T04:10:00.605Z,38.17
2023-03-07T04:12:27.367Z,44.57
2023-03-07T04:14:53.776Z,60.67
2023-03-07T04:17:20.198Z,29.13
2023-03-07T04:19:46.659Z,35.93
2023-03-07T04:22:13.311Z,35.77
2023-03-07T04:24:39.898Z,28.70
2023-03-07T04:27:07.500Z,51.97
2023-03-07T04:29:35.596Z,33.53
2023-03-07T04:32:11.059Z,39.27
2023-03-07T04:34:37.811Z,38.83
2023-03-07T04:37:04.309Z,52.50
2023-03-07T04:39:30.779Z,40.70
2023-03-07T04:41:57.377Z,43.53
2023-03-07T04:44:24.728Z,36.20
2023-03-07T04:46:51.206Z,42.23
2023-03-07T04:49:17.744Z,40.53
2023-03-07T04:51:44.302Z,40.97
2023-03-07T04:54:13.298Z,54.67
2023-03-07T04:56:40.556Z,38.13
2023-03-07T04:59:09.297Z,30.77
2023-03-07T05:01:35.879Z,35.67
2023-03-07T05:04:02.545Z,30.63
2023-03-07T05:06:29.195Z,40.67
2023-03-07T05:08:56.290Z,58.60
2023-03-07T05:11:22.729Z,30.67
2023-03-07T05:13:50.532Z,35.27
2023-03-07T05:16:19.629Z,33.77
2023-03-07T05:18:46.140Z,45.13
2023-03-07T05:21:12.830Z,31.53
2023-03-07T05:23:39.716Z,31.33
2023-03-07T05:26:07.614Z,63.30
2023-03-07T05:28:34.140Z,40.87
2023-03-07T05:31:00.625Z,32.53
2023-03-07T05:33:27.176Z,33.73
2023-03-07T05:35:55.522Z,34.50
2023-03-07T05:38:22.957Z,37.20
2023-03-07T05:40:49.392Z,39.43
2023-03-07T05:43:15.901Z,40.70
2023-03-07T05:45:42.350Z,42.73
2023-03-07T05:48:08.894Z,36.00
2023-03-07T05:50:37.383Z,30.70
2023-03-07T05:53:04.425Z,44.57
2023-03-07T05:55:31.037Z,31.93
2023-03-07T05:57:58.760Z,41.63
2023-03-07T06:00:25.566Z,50.17
2023-03-07T06:02:56.379Z,38.40
2023-03-07T06:05:25.265Z,40.00
2023-03-07T06:07:52.139Z,46.30
2023-03-07T06:10:18.781Z,67.17
2023-03-07T06:12:48.938Z,45.30
2023-03-07T06:15:15.384Z,41.97
2023-03-07T06:17:41.987Z,35.90
2023-03-07T06:20:09.089Z,37.80
2023-03-07T06:22:38.158Z,45.30
2023-03-07T06:25:05.485Z,48.20
2023-03-07T06:27:36.010Z,48.13
2023-03-07T06:30:04.145Z,36.43
2023-03-07T06:32:30.987Z,36.57
2023-03-07T06:34:58.153Z,60.27
2023-03-07T06:37:25.933Z,64.17
2023-03-07T06:39:53.777Z,45.57
2023-03-07T06:42:20.642Z,47.17
2023-03-07T06:44:47.510Z,45.57
2023-03-07T06:47:14.205Z,42.80
2023-03-07T06:49:41.714Z,37.77
2023-03-07T06:52:08.735Z,46.83
2023-03-07T06:54:35.299Z,43.10
2023-03-07T06:57:01.915Z,30.60
2023-03-07T06:59:28.369Z,46.03
2023-03-07T07:01:55.062Z,33.73
2023-03-07T07:04:22.261Z,39.63
2023-03-07T07:06:49.690Z,49.80
2023-03-07T07:09:16.573Z,42.00
2023-03-07T07:11:43.327Z,45.13
2023-03-07T07:14:12.229Z,51.57
2023-03-07T07:16:39.670Z,46.30
2023-03-07T07:19:06.995Z,50.07
2023-03-07T07:21:35.296Z,47.50
2023-03-07T07:24:01.920Z,43.27
2023-03-07T07:26:29.119Z,33.33
2023-03-07T07:28:57.669Z,43.20
2023-03-07T07:31:24.206Z,39.83
2023-03-07T07:33:50.702Z,69.23
2023-03-07T07:36:18.236Z,70.60
2023-03-07T07:38:44.776Z,74.20
2023-03-07T07:41:12.194Z,61.97
2023-03-07T07:43:38.826Z,74.60
2023-03-07T07:46:18.299Z,53.93
2023-03-07T07:48:46.750Z,44.13
2023-03-07T07:51:13.415Z,65.30
2023-03-07T07:53:40.527Z,43.47
2023-03-07T07:56:07.487Z,42.20
2023-03-07T07:58:34.064Z,51.23
2023-03-07T08:01:11.669Z,46.60
2023-03-07T08:03:38.228Z,39.53
2023-03-07T08:06:04.808Z,34.83
2023-03-07T08:08:31.215Z,44.83
2023-03-07T08:10:57.621Z,41.57
2023-03-07T08:13:24.317Z,52.27
2023-03-07T08:15:51.064Z,39.00
2023-03-07T08:18:18.262Z,45.83
2023-03-07T08:20:44.706Z,34.93
2023-03-07T08:23:11.140Z,36.23
2023-03-07T08:25:37.683Z,36.90
2023-03-07T08:28:05.397Z,35.53
2023-03-07T08:30:32.906Z,31.40
2023-03-07T08:32:59.990Z,40.77
2023-03-07T08:35:27.613Z,37.50
2023-03-07T08:37:55.258Z,34.70
2023-03-07T08:40:22.653Z,40.50
2023-03-07T08:42:49.068Z,31.77
2023-03-07T08:45:15.550Z,31.83
2023-03-07T08:47:42.098Z,35.23
2023-03-07T08:50:08.945Z,30.57
2023-03-07T08:52:35.359Z,34.90
2023-03-07T08:55:01.925Z,30.83
2023-03-07T08:57:28.344Z,32.60
2023-03-07T08:59:54.774Z,39.07
2023-03-07T09:02:21.259Z,26.87
2023-03-07T09:04:47.777Z,25.20
2023-03-07T09:07:14.305Z,25.60
2023-03-07T09:09:40.759Z,27.73
2023-03-07T09:12:07.400Z,29.00
2023-03-07T09:14:33.856Z,26.03
2023-03-07T09:17:00.339Z,25.70
2023-03-07T09:19:26.828Z,26.37
2023-03-07T09:21:53.272Z,29.27
2023-03-07T09:24:19.813Z,26.47
2023-03-07T09:26:46.289Z,31.57
2023-03-07T09:29:12.772Z,29.27
2023-03-07T09:31:40.930Z,51.90
2023-03-07T09:34:07.455Z,39.70
2023-03-07T09:36:33.963Z,38.90
2023-03-07T09:39:00.678Z,32.63
2023-03-07T09:41:45.781Z,30.87
2023-03-07T09:44:17.977Z,30.23
2023-03-07T09:47:21.371Z,30.40
2023-03-07T09:49:49.170Z,24.43
2023-03-07T09:52:25.781Z,33.50
2023-03-07T09:55:00.374Z,30.13
2023-03-07T09:57:34.541Z,24.90
2023-03-07T10:00:05.744Z,22.13
2023-03-07T10:02:49.958Z,34.23
2023-03-07T10:05:37.527Z,30.30
2023-03-07T10:08:05.320Z,32.07
2023-03-07T10:10:38.970Z,23.57
2023-03-07T10:13:08.467Z,17.07
2023-03-07T10:15:58.144Z,8.87
2023-03-07T10:18:35.630Z,9.70
2023-03-07T10:21:17.507Z,10.20
2023-03-07T10:23:43.990Z,7.10
2023-03-07T10:26:19.851Z,8.17
2023-03-07T10:28:46.894Z,9.90
2023-03-07T10:31:13.278Z,6.53
2023-03-07T10:33:40.533Z,8.57
2023-03-07T10:36:09.085Z,8.27
2023-03-07T10:38:42.047Z,15.03
2023-03-07T10:41:13.773Z,8.87
2023-03-07T10:43:41.994Z,8.30
2023-03-07T10:46:22.270Z,8.77
2023-03-07T10:48:52.717Z,10.83
2023-03-07T10:51:22.179Z,12.80
2023-03-07T10:53:49.930Z,10.63
2023-03-07T10:56:18.219Z,15.57
2023-03-07T10:59:03.575Z,10.80
2023-03-07T11:01:31.158Z,12.33
2023-03-07T11:04:01.878Z,8.30
2023-03-07T11:06:39.472Z,11.47
2023-03-07T11:09:15.840Z,20.23
2023-03-07T11:11:47.454Z,10.17
2023-03-07T11:14:15.685Z,6.90
2023-03-07T11:16:49.023Z,11.67
2023-03-07T11:19:34.323Z,15.63
2023-03-07T11:22:03.485Z,18.10
2023-03-07T11:24:31.930Z,11.27
2023-03-07T11:26:59.148Z,8.60
2023-03-07T11:29:28.187Z,14.30
2023-03-07T11:32:01.553Z,5.90
2023-03-07T11:34:37.790Z,5.77
2023-03-07T11:37:15.038Z,4.50
2023-03-07T11:39:48.833Z,5.47
2023-03-07T11:42:24.303Z,6.03
2023-03-07T11:44:56.984Z,4.27
2023-03-07T11:47:30.158Z,7.83
2023-03-07T11:49:56.608Z,10.33
2023-03-07T11:52:31.898Z,6.80
2023-03-07T11:54:58.470Z,5.30
2023-03-07T11:57:36.795Z,6.00
2023-03-07T12:00:11.607Z,6.57
2023-03-07T12:02:52.692Z,5.90
2023-03-07T12:05:38.057Z,9.60
2023-03-07T12:08:24.568Z,6.20
2023-03-07T12:10:58.729Z,5.10
2023-03-07T12:13:34.332Z,3.80
2023-03-07T12:16:24.020Z,9.47
2023-03-07T12:18:53.497Z,15.03
2023-03-07T12:21:38.791Z,6.10
2023-03-07T12:24:24.921Z,7.47
2023-03-07T12:27:02.530Z,5.90
2023-03-07T12:29:35.765Z,6.57
2023-03-07T12:32:11.112Z,17.17
2023-03-07T12:34:39.821Z,7.83
2023-03-07T12:37:08.251Z,12.60
2023-03-07T12:39:46.644Z,7.17
2023-03-07T12:42:22.164Z,8.57
2023-03-07T12:44:59.559Z,11.30
2023-03-07T12:47:35.089Z,15.50
2023-03-07T12:50:20.233Z,13.33
2023-03-07T12:53:10.100Z,16.80
2023-03-07T12:55:36.531Z,10.13
2023-03-07T12:58:19.734Z,9.93
2023-03-07T13:00:58.269Z,18.10
2023-03-07T13:03:34.941Z,25.80
2023-03-07T13:06:01.661Z,11.43
2023-03-07T13:08:28.154Z,10.80
2023-03-07T13:10:55.737Z,9.83
2023-03-07T13:13:40.717Z,13.67
2023-03-07T13:16:07.513Z,9.87
2023-03-07T13:18:34.125Z,11.30
2023-03-07T13:21:11.998Z,16.03
2023-03-07T13:23:38.650Z,7.13
2023-03-07T13:26:06.500Z,8.67
2023-03-07T13:28:34.791Z,10.90
2023-03-07T13:31:10.478Z,7.57
2023-03-07T13:33:36.952Z,19.17
2023-03-07T13:36:03.997Z,12.57
2023-03-07T13:38:32.132Z,8.77
2023-03-07T13:41:00.356Z,16.17
2023-03-07T13:43:32.318Z,10.30
2023-03-07T13:45:59.539Z,7.73
2023-03-07T13:48:28.913Z,14.33
2023-03-07T13:50:55.329Z,15.37
2023-03-07T13:53:24.561Z,9.23
2023-03-07T13:56:09.535Z,18.03
2023-03-07T13:58:44.607Z,8.07
2023-03-07T14:01:17.193Z,16.67
2023-03-07T14:03:54.406Z,7.23
2023-03-07T14:06:40.213Z,9.70
2023-03-07T14:09:08.543Z,19.20
2023-03-07T14:11:34.948Z,11.60
2023-03-07T14:14:08.683Z,9.30
2023-03-07T14:16:35.179Z,24.83
2023-03-07T14:19:06.935Z,12.43
2023-03-07T14:21:39.393Z,11.17
2023-03-07T14:24:25.504Z,15.63
2023-03-07T14:26:55.304Z,10.10
2023-03-07T14:29:23.013Z,13.33
2023-03-07T14:31:53.193Z,11.67
2023-03-07T14:34:33.086Z,12.43
2023-03-07T14:37:01.067Z,38.43
2023-03-07T14:39:38.170Z,16.47
2023-03-07T14:42:10.096Z,10.20
2023-03-07T14:44:43.463Z,18.37
2023-03-07T14:47:19.067Z,25.07
2023-03-07T14:49:48.637Z,9.83
2023-03-07T14:52:28.264Z,24.83
2023-03-07T14:54:59.495Z,29.30
2023-03-07T14:57:32.002Z,31.17
2023-03-07T15:00:07.780Z,29.50
2023-03-07T15:02:34.240Z,25.73
2023-03-07T15:05:00.762Z,15.23
2023-03-07T15:07:27.735Z,27.40
2023-03-07T15:09:54.199Z,39.77
2023-03-07T15:12:25.258Z,41.23
2023-03-07T15:14:54.518Z,56.90
2023-03-07T15:17:24.069Z,24.50
2023-03-07T15:19:54.141Z,38.63
2023-03-07T15:22:28.837Z,24.80
2023-03-07T15:24:55.563Z,55.37
2023-03-07T15:27:24.760Z,72.27
2023-03-07T15:29:51.644Z,27.70
2023-03-07T15:32:32.794Z,71.23
2023-03-07T15:35:00.842Z,40.63
2023-03-07T15:37:28.496Z,85.33
2023-03-07T15:40:01.178Z,25.00
2023-03-07T15:42:28.297Z,21.83
2023-03-07T15:44:57.674Z,40.00
2023-03-07T15:47:24.765Z,41.13
2023-03-07T15:49:52.940Z,38.77
2023-03-07T15:52:21.539Z,38.60
2023-03-07T15:54:51.558Z,10.70
2023-03-07T15:57:19.689Z,15.67
2023-03-07T15:59:56.815Z,24.23
2023-03-07T16:02:32.422Z,50.83
2023-03-07T16:04:59.654Z,48.20
2023-03-07T16:07:26.132Z,11.07
2023-03-07T16:09:52.610Z,116.00
2023-03-07T16:12:21.064Z,31.50
2023-03-07T16:14:47.977Z,47.77
2023-03-07T16:17:33.252Z,27.87
2023-03-07T16:19:59.714Z,85.77
2023-03-07T16:22:26.230Z,14.43
2023-03-07T16:24:52.654Z,29.33
2023-03-07T16:27:20.104Z,23.63
2023-03-07T16:29:47.077Z,42.87
2023-03-07T16:32:14.994Z,19.17
2023-03-07T16:34:43.369Z,45.00
2023-03-07T16:37:10.884Z,69.07
2023-03-07T16:39:37.862Z,42.37
2023-03-07T16:42:04.684Z,34.63
2023-03-07T16:44:31.203Z,93.83
2023-03-07T16:47:01.655Z,53.90
2023-03-07T16:49:28.146Z,118.90
2023-03-07T16:52:05.243Z,83.77
2023-03-07T16:54:32.804Z,34.50
2023-03-07T16:57:00.607Z,26.60
2023-03-07T16:59:29.149Z,122.03
2023-03-07T17:01:55.647Z,32.57
2023-03-07T17:04:22.085Z,96.50
2023-03-07T17:06:57.661Z,42.50
2023-03-07T17:09:27.454Z,42.97
2023-03-07T17:11:53.927Z,52.77
2023-03-07T17:14:20.467Z,49.77
2023-03-07T17:16:48.612Z,53.50
2023-03-07T17:19:28.422Z,71.80
2023-03-07T17:21:55.593Z,70.20
2023-03-07T17:24:22.036Z,154.13
2023-03-07T17:26:48.937Z,116.63
2023-03-07T17:29:35.769Z,81.50
2023-03-07T17:32:02.453Z,67.77
2023-03-07T17:34:30.031Z,87.50
2023-03-07T17:36:57.557Z,97.33
2023-03-07T17:39:24.113Z,71.90
2023-03-07T17:41:50.649Z,95.77
2023-03-07T17:44:18.159Z,37.53
2023-03-07T17:46:44.619Z,37.10
2023-03-07T17:49:11.061Z,42.57
2023-03-07T17:51:37.507Z,45.93
2023-03-07T17:54:05.908Z,56.47
2023-03-07T17:56:32.375Z,124.90
2023-03-07T17:59:01.405Z,135.60
2023-03-07T18:01:29.092Z,145.10
2023-03-07T18:03:56.169Z,63.00
2023-03-07T18:06:23.072Z,224.37
2023-03-07T18:08:49.684Z,44.23
2023-03-07T18:11:16.138Z,129.83
2023-03-07T18:13:42.619Z,156.10
2023-03-07T18:16:09.794Z,61.10
2023-03-07T18:18:38.253Z,135.03
2023-03-07T18:21:06.537Z,65.97
2023-03-07T18:23:34.271Z,98.27
2023-03-07T18:26:01.834Z,73.37
2023-03-07T18:28:28.637Z,154.80
2023-03-07T18:31:03.474Z,156.57
2023-03-07T18:33:30.400Z,69.13
2023-03-07T18:35:57.782Z,109.57
2023-03-07T18:38:24.675Z,103.17
2023-03-07T18:40:53.676Z,144.63
2023-03-07T18:43:20.428Z,144.80
2023-03-07T18:45:48.116Z,142.97
2023-03-07T18:48:14.546Z,105.30
2023-03-07T18:50:40.954Z,73.67
2023-03-07T18:53:07.613Z,69.87
2023-03-07T18:55:37.284Z,123.03
2023-03-07T18:58:03.810Z,194.33
2023-03-07T19:00:30.312Z,239.90
2023-03-07T19:02:56.804Z,89.07
2023-03-07T19:05:23.348Z,103.77
2023-03-07T19:07:49.805Z,64.53
2023-03-07T19:10:16.395Z,85.87
2023-03-07T19:12:42.844Z,60.00
2023-03-07T19:15:09.504Z,76.10
2023-03-07T19:17:40.339Z,44.10
2023-03-07T19:20:07.167Z,119.57
2023-03-07T19:22:33.782Z,48.03
2023-03-07T19:25:00.256Z,60.03
2023-03-07T19:27:27.947Z,113.10
2023-03-07T19:29:54.759Z,132.20
2023-03-07T19:32:21.371Z,139.77
2023-03-07T19:34:50.939Z,153.23
2023-03-07T19:37:17.407Z,187.07
2023-03-07T19:39:43.851Z,176.23
2023-03-07T19:42:10.656Z,34.27
2023-03-07T19:44:37.216Z,88.07
2023-03-07T19:47:03.777Z,35.97
2023-03-07T19:49:30.224Z,168.47
2023-03-07T19:51:56.696Z,122.37
2023-03-07T19:54:23.220Z,146.37
2023-03-07T19:56:49.631Z,99.80
2023-03-07T19:59:16.153Z,96.63
2023-03-07T20:01:42.736Z,125.47
2023-03-07T20:04:10.870Z,154.97
2023-03-07T20:06:37.310Z,115.37
2023-03-07T20:09:03.905Z,49.30
2023-03-07T20:11:31.981Z,101.97
2023-03-07T20:13:59.658Z,52.70
2023-03-07T20:16:28.984Z,88.00
2023-03-07T20:18:56.427Z,75.67
2023-03-07T20:21:25.710Z,148.57
2023-03-07T20:23:54.331Z,182.40
2023-03-07T20:26:25.196Z,105.40
2023-03-07T20:28:52.564Z,122.17
2023-03-07T20:31:20.151Z,126.13
2023-03-07T20:33:47.106Z,116.07
2023-03-07T20:36:21.444Z,87.30
2023-03-07T20:38:49.999Z,132.17
2023-03-07T20:41:17.134Z,91.43
2023-03-07T20:43:43.600Z,73.13
2023-03-07T20:46:12.898Z,84.37
2023-03-07T20:48:39.926Z,117.30
2023-03-07T20:51:18.212Z,107.40
2023-03-07T20:53:45.472Z,108.93
2023-03-07T20:56:11.967Z,78.47
2023-03-07T20:58:38.380Z,84.83
2023-03-07T21:01:04.982Z,89.60
2023-03-07T21:03:31.443Z,55.47
2023-03-07T21:06:01.942Z,39.27
2023-03-07T21:08:32.296Z,42.03
2023-03-07T21:11:00.010Z,97.13
2023-03-07T21:13:26.826Z,100.33
2023-03-07T21:15:56.660Z,83.87
2023-03-07T21:18:23.426Z,46.53
2023-03-07T21:20:50.153Z,55.63
2023-03-07T21:23:17.140Z,59.53
2023-03-07T21:25:45.065Z,58.70
2023-03-07T21:28:12.028Z,62.37
2023-03-07T21:30:38.562Z,31.07
2023-03-07T21:33:04.973Z,112.13
2023-03-07T21:35:35.886Z,156.30
2023-03-07T21:38:02.359Z,121.97
2023-03-07T21:40:28.828Z,103.83
2023-03-07T21:42:55.268Z,47.80
2023-03-07T21:45:23.426Z,45.20
2023-03-07T21:47:54.097Z,125.57
2023-03-07T21:50:20.640Z,32.47
2023-03-07T21:52:47.203Z,51.37
2023-03-07T21:55:13.748Z,30.53
2023-03-07T21:57:40.191Z,60.43
2023-03-07T22:00:08.301Z,97.30
2023-03-07T22:02:37.750Z,40.87
2023-03-07T22:05:04.910Z,56.70
2023-03-07T22:07:31.771Z,58.73
2023-03-07T22:09:58.228Z,50.67
2023-03-07T22:12:24.604Z,45.03
2023-03-07T22:14:51.112Z,30.40
2023-03-07T22:17:17.613Z,63.27
2023-03-07T22:19:44.086Z,39.37
2023-03-07T22:22:10.592Z,34.87
2023-03-07T22:24:37.045Z,33.10
2023-03-07T22:27:03.499Z,91.80
2023-03-07T22:29:29.963Z,24.67
2023-03-07T22:31:56.450Z,31.33
2023-03-07T22:34:22.883Z,49.90
2023-03-07T22:36:54.430Z,52.53
2023-03-07T22:39:20.907Z,73.90
2023-03-07T22:41:47.441Z,84.40
2023-03-07T22:44:15.308Z,67.13
2023-03-07T22:46:41.771Z,52.67
2023-03-07T22:49:09.927Z,45.13
2023-03-07T22:51:37.433Z,40.50
2023-03-07T22:54:04.372Z,80.07
2023-03-07T22:56:31.521Z,30.50
2023-03-07T22:58:58.388Z,61.73
2023-03-07T23:01:26.068Z,68.23
2023-03-07T23:03:53.403Z,59.83
2023-03-07T23:06:20.413Z,36.07
2023-03-07T23:08:47.836Z,45.20
2023-03-07T23:11:14.862Z,37.90
2023-03-07T23:13:44.146Z,40.77
2023-03-07T23:16:12.033Z,48.13
2023-03-07T23:18:39.075Z,48.57
2023-03-07T23:21:06.496Z,76.83
2023-03-07T23:23:32.982Z,43.30
2023-03-07T23:25:59.603Z,96.13
2023-03-07T23:28:26.132Z,62.87
2023-03-07T23:30:52.853Z,50.83
2023-03-07T23:33:19.560Z,26.30
2023-03-07T23:35:46.091Z,40.93
2023-03-07T23:38:13.083Z,66.30
2023-03-07T23:40:39.692Z,39.37
2023-03-07T23:43:06.609Z,83.83
2023-03-07T23:45:33.244Z,28.70
2023-03-07T23:47:59.699Z,88.63
2023-03-07T23:50:26.179Z,80.20
2023-03-07T23:52:52.573Z,95.57
2023-03-07T23:55:19.048Z,113.50
2023-03-07T23:57:46.096Z,51.07
